sensor_id;sensor_type;location;lat;lon;timestamp;P1;durP1;ratioP1;P2;durP2;ratioP2
9888;SDS011;4983;42.112;24.738;2023-11-21T00:02:25;4.07;;;2.50;;
9888;SDS011;4983;42.112;24.738;2023-11-21T00:04:54;3.40;;;2.10;;
9888;SDS011;4983;42.112;24.738;2023-11-21T00:07:21;3.63;;;2.10;;
9888;SDS011;4983;42.112;24.738;2023-11-21T00:09:48;3.27;;;2.07;;
9888;SDS011;4983;42.112;24.738;2023-11-21T00:12:15;2.63;;;2.03;;
9888;SDS011;4983;42.112;24.738;2023-11-21T00:14:42;3.37;;;2.40;;
9888;SDS011;4983;42.112;24.738;2023-11-21T00:17:09;3.50;;;2.40;;
9888;SDS011;4983;42.112;24.738;2023-11-21T00:19:35;3.37;;;2.57;;
9888;SDS011;4983;42.112;24.738;2023-11-21T00:22:04;3.67;;;2.77;;
9888;SDS011;4983;42.112;24.738;2023-11-21T00:24:31;5.37;;;3.03;;
9888;SDS011;4983;42.112;24.738;2023-11-21T00:26:58;11.37;;;6.97;;
9888;SDS011;4983;42.112;24.738;2023-11-21T00:29:26;25.80;;;16.00;;
9888;SDS011;4983;42.112;24.738;2023-11-21T00:31:52;10.93;;;6.70;;
9888;SDS011;4983;42.112;24.738;2023-11-21T00:34:19;18.93;;;9.73;;
9888;SDS011;4983;42.112;24.738;2023-11-21T00:36:46;12.73;;;8.00;;
9888;SDS011;4983;42.112;24.738;2023-11-21T00:39:15;8.57;;;5.97;;
9888;SDS011;4983;42.112;24.738;2023-11-21T00:41:41;4.80;;;3.60;;
9888;SDS011;4983;42.112;24.738;2023-11-21T00:44:10;4.63;;;3.60;;
9888;SDS011;4983;42.112;24.738;2023-11-21T00:46:37;10.20;;;6.43;;
9888;SDS011;4983;42.112;24.738;2023-11-21T00:49:04;5.37;;;3.20;;
9888;SDS011;4983;42.112;24.738;2023-11-21T00:51:30;3.50;;;2.10;;
9888;SDS011;4983;42.112;24.738;2023-11-21T00:53:58;2.97;;;2.30;;
9888;SDS011;4983;42.112;24.738;2023-11-21T00:56:26;4.20;;;2.10;;
9888;SDS011;4983;42.112;24.738;2023-11-21T00:58:54;5.47;;;2.60;;
9888;SDS011;4983;42.112;24.738;2023-11-21T01:01:21;3.83;;;2.60;;
9888;SDS011;4983;42.112;24.738;2023-11-21T01:03:49;3.87;;;2.77;;
9888;SDS011;4983;42.112;24.738;2023-11-21T01:06:17;3.87;;;2.60;;
9888;SDS011;4983;42.112;24.738;2023-11-21T01:08:44;4.27;;;2.40;;
9888;SDS011;4983;42.112;24.738;2023-11-21T01:11:13;5.13;;;2.80;;
9888;SDS011;4983;42.112;24.738;2023-11-21T01:13:42;4.93;;;3.47;;
9888;SDS011;4983;42.112;24.738;2023-11-21T01:16:10;6.10;;;4.20;;
9888;SDS011;4983;42.112;24.738;2023-11-21T01:18:37;5.87;;;4.07;;
9888;SDS011;4983;42.112;24.738;2023-11-21T01:21:04;6.47;;;3.97;;
9888;SDS011;4983;42.112;24.738;2023-11-21T01:23:31;6.80;;;3.70;;
9888;SDS011;4983;42.112;24.738;2023-11-21T01:25:58;6.37;;;3.53;;
9888;SDS011;4983;42.112;24.738;2023-11-21T01:28:25;11.40;;;4.70;;
9888;SDS011;4983;42.112;24.738;2023-11-21T01:30:53;105.40;;;20.83;;
9888;SDS011;4983;42.112;24.738;2023-11-21T01:33:21;22.87;;;6.47;;
9888;SDS011;4983;42.112;24.738;2023-11-21T01:35:50;165.77;;;22.00;;
9888;SDS011;4983;42.112;24.738;2023-11-21T01:38:19;19.47;;;6.77;;
9888;SDS011;4983;42.112;24.738;2023-11-21T01:40:46;9.07;;;4.87;;
9888;SDS011;4983;42.112;24.738;2023-11-21T01:43:13;8.80;;;4.80;;
9888;SDS011;4983;42.112;24.738;2023-11-21T01:45:40;10.67;;;5.47;;
9888;SDS011;4983;42.112;24.738;2023-11-21T01:48:08;7.33;;;4.90;;
9888;SDS011;4983;42.112;24.738;2023-11-21T01:50:35;8.83;;;4.40;;
9888;SDS011;4983;42.112;24.738;2023-11-21T01:53:02;21.80;;;6.00;;
9888;SDS011;4983;42.112;24.738;2023-11-21T01:55:30;34.73;;;7.10;;
9888;SDS011;4983;42.112;24.738;2023-11-21T01:57:58;23.67;;;6.33;;
9888;SDS011;4983;42.112;24.738;2023-11-21T02:00:25;13.07;;;5.03;;
9888;SDS011;4983;42.112;24.738;2023-11-21T02:02:54;10.00;;;4.53;;
9888;SDS011;4983;42.112;24.738;2023-11-21T02:05:23;10.30;;;5.07;;
9888;SDS011;4983;42.112;24.738;2023-11-21T02:07:51;11.83;;;5.50;;
9888;SDS011;4983;42.112;24.738;2023-11-21T02:10:18;13.13;;;5.63;;
9888;SDS011;4983;42.112;24.738;2023-11-21T02:12:48;13.33;;;5.67;;
9888;SDS011;4983;42.112;24.738;2023-11-21T02:15:15;8.10;;;5.03;;
9888;SDS011;4983;42.112;24.738;2023-11-21T02:17:45;7.23;;;4.90;;
9888;SDS011;4983;42.112;24.738;2023-11-21T02:20:13;8.37;;;5.43;;
9888;SDS011;4983;42.112;24.738;2023-11-21T02:22:42;7.07;;;5.03;;
9888;SDS011;4983;42.112;24.738;2023-11-21T02:25:11;8.43;;;5.57;;
9888;SDS011;4983;42.112;24.738;2023-11-21T02:27:39;8.47;;;5.93;;
9888;SDS011;4983;42.112;24.738;2023-11-21T02:30:07;10.20;;;6.30;;
9888;SDS011;4983;42.112;24.738;2023-11-21T02:32:38;9.40;;;6.10;;
9888;SDS011;4983;42.112;24.738;2023-11-21T02:35:08;13.27;;;6.57;;
9888;SDS011;4983;42.112;24.738;2023-11-21T02:37:35;9.20;;;6.60;;
9888;SDS011;4983;42.112;24.738;2023-11-21T02:40:01;11.10;;;6.67;;
9888;SDS011;4983;42.112;24.738;2023-11-21T02:42:32;9.60;;;6.60;;
9888;SDS011;4983;42.112;24.738;2023-11-21T02:44:59;12.07;;;6.67;;
9888;SDS011;4983;42.112;24.738;2023-11-21T02:47:26;9.83;;;6.53;;
9888;SDS011;4983;42.112;24.738;2023-11-21T02:49:54;9.20;;;6.83;;
9888;SDS011;4983;42.112;24.738;2023-11-21T02:52:21;10.50;;;6.93;;
9888;SDS011;4983;42.112;24.738;2023-11-21T02:54:49;9.97;;;6.57;;
9888;SDS011;4983;42.112;24.738;2023-11-21T02:57:16;9.33;;;7.20;;
9888;SDS011;4983;42.112;24.738;2023-11-21T02:59:45;12.00;;;7.30;;
9888;SDS011;4983;42.112;24.738;2023-11-21T03:02:12;11.37;;;6.80;;
9888;SDS011;4983;42.112;24.738;2023-11-21T03:04:39;9.27;;;7.23;;
9888;SDS011;4983;42.112;24.738;2023-11-21T03:07:05;24.63;;;8.07;;
9888;SDS011;4983;42.112;24.738;2023-11-21T03:09:32;19.27;;;7.97;;
9888;SDS011;4983;42.112;24.738;2023-11-21T03:11:59;12.23;;;7.50;;
9888;SDS011;4983;42.112;24.738;2023-11-21T03:14:26;11.30;;;6.93;;
9888;SDS011;4983;42.112;24.738;2023-11-21T03:16:54;20.80;;;8.33;;
9888;SDS011;4983;42.112;24.738;2023-11-21T03:19:22;12.33;;;7.57;;
9888;SDS011;4983;42.112;24.738;2023-11-21T03:21:49;18.43;;;7.63;;
9888;SDS011;4983;42.112;24.738;2023-11-21T03:24:18;16.17;;;8.90;;
9888;SDS011;4983;42.112;24.738;2023-11-21T03:26:45;22.27;;;7.80;;
9888;SDS011;4983;42.112;24.738;2023-11-21T03:29:12;12.80;;;8.37;;
9888;SDS011;4983;42.112;24.738;2023-11-21T03:31:41;12.47;;;8.30;;
9888;SDS011;4983;42.112;24.738;2023-11-21T03:34:14;20.03;;;12.77;;
9888;SDS011;4983;42.112;24.738;2023-11-21T03:36:43;28.97;;;16.83;;
9888;SDS011;4983;42.112;24.738;2023-11-21T03:39:11;19.70;;;10.30;;
9888;SDS011;4983;42.112;24.738;2023-11-21T03:41:38;25.03;;;9.77;;
9888;SDS011;4983;42.112;24.738;2023-11-21T03:44:07;14.40;;;9.00;;
9888;SDS011;4983;42.112;24.738;2023-11-21T03:46:33;17.70;;;9.67;;
9888;SDS011;4983;42.112;24.738;2023-11-21T03:49:00;16.13;;;9.13;;
9888;SDS011;4983;42.112;24.738;2023-11-21T03:51:29;31.43;;;11.87;;
9888;SDS011;4983;42.112;24.738;2023-11-21T03:53:55;20.13;;;9.20;;
9888;SDS011;4983;42.112;24.738;2023-11-21T03:56:22;23.90;;;9.67;;
9888;SDS011;4983;42.112;24.738;2023-11-21T03:58:50;12.87;;;10.23;;
9888;SDS011;4983;42.112;24.738;2023-11-21T04:01:19;21.83;;;11.83;;
9888;SDS011;4983;42.112;24.738;2023-11-21T04:03:48;13.10;;;9.83;;
9888;SDS011;4983;42.112;24.738;2023-11-21T04:06:15;41.33;;;13.23;;
9888;SDS011;4983;42.112;24.738;2023-11-21T04:08:44;23.93;;;10.70;;
9888;SDS011;4983;42.112;24.738;2023-11-21T04:11:11;33.33;;;12.27;;
9888;SDS011;4983;42.112;24.738;2023-11-21T04:13:38;24.33;;;11.23;;
9888;SDS011;4983;42.112;24.738;2023-11-21T04:16:05;16.67;;;9.83;;
9888;SDS011;4983;42.112;24.738;2023-11-21T04:18:33;25.03;;;10.47;;
9888;SDS011;4983;42.112;24.738;2023-11-21T04:21:00;13.83;;;9.53;;
9888;SDS011;4983;42.112;24.738;2023-11-21T04:23:29;70.63;;;14.70;;
9888;SDS011;4983;42.112;24.738;2023-11-21T04:25:58;30.27;;;10.63;;
9888;SDS011;4983;42.112;24.738;2023-11-21T04:28:25;25.07;;;10.27;;
9888;SDS011;4983;42.112;24.738;2023-11-21T04:30:52;25.40;;;11.37;;
9888;SDS011;4983;42.112;24.738;2023-11-21T04:33:19;24.17;;;11.07;;
9888;SDS011;4983;42.112;24.738;2023-11-21T04:35:46;22.43;;;11.70;;
9888;SDS011;4983;42.112;24.738;2023-11-21T04:38:13;22.90;;;10.47;;
9888;SDS011;4983;42.112;24.738;2023-11-21T04:40:40;18.43;;;11.20;;
9888;SDS011;4983;42.112;24.738;2023-11-21T04:43:09;29.80;;;14.00;;
9888;SDS011;4983;42.112;24.738;2023-11-21T04:45:37;25.00;;;12.03;;
9888;SDS011;4983;42.112;24.738;2023-11-21T04:48:04;24.00;;;12.50;;
9888;SDS011;4983;42.112;24.738;2023-11-21T04:50:31;20.33;;;13.70;;
9888;SDS011;4983;42.112;24.738;2023-11-21T04:52:58;49.10;;;15.37;;
9888;SDS011;4983;42.112;24.738;2023-11-21T04:55:25;54.23;;;14.30;;
9888;SDS011;4983;42.112;24.738;2023-11-21T04:57:53;35.60;;;12.83;;
9888;SDS011;4983;42.112;24.738;2023-11-21T05:00:21;64.37;;;16.47;;
9888;SDS011;4983;42.112;24.738;2023-11-21T05:02:49;55.90;;;13.80;;
9888;SDS011;4983;42.112;24.738;2023-11-21T05:05:16;54.20;;;13.87;;
9888;SDS011;4983;42.112;24.738;2023-11-21T05:07:43;85.57;;;14.60;;
9888;SDS011;4983;42.112;24.738;2023-11-21T05:10:10;72.40;;;14.43;;
9888;SDS011;4983;42.112;24.738;2023-11-21T05:12:40;22.23;;;11.30;;
9888;SDS011;4983;42.112;24.738;2023-11-21T05:15:08;43.53;;;14.13;;
9888;SDS011;4983;42.112;24.738;2023-11-21T05:17:37;29.23;;;13.30;;
9888;SDS011;4983;42.112;24.738;2023-11-21T05:20:07;24.63;;;12.73;;
9888;SDS011;4983;42.112;24.738;2023-11-21T05:22:35;26.23;;;12.80;;
9888;SDS011;4983;42.112;24.738;2023-11-21T05:25:02;59.57;;;16.20;;
9888;SDS011;4983;42.112;24.738;2023-11-21T05:27:30;132.17;;;21.17;;
9888;SDS011;4983;42.112;24.738;2023-11-21T05:29:57;129.70;;;21.43;;
9888;SDS011;4983;42.112;24.738;2023-11-21T05:32:24;80.23;;;17.43;;
9888;SDS011;4983;42.112;24.738;2023-11-21T05:34:52;64.53;;;16.17;;
9888;SDS011;4983;42.112;24.738;2023-11-21T05:37:19;59.33;;;19.30;;
9888;SDS011;4983;42.112;24.738;2023-11-21T05:39:46;115.77;;;26.90;;
9888;SDS011;4983;42.112;24.738;2023-11-21T05:42:13;76.23;;;16.00;;
9888;SDS011;4983;42.112;24.738;2023-11-21T05:44:41;110.80;;;18.43;;
9888;SDS011;4983;42.112;24.738;2023-11-21T05:47:09;90.10;;;22.90;;
9888;SDS011;4983;42.112;24.738;2023-11-21T05:49:36;39.43;;;13.53;;
9888;SDS011;4983;42.112;24.738;2023-11-21T05:52:05;28.67;;;12.43;;
9888;SDS011;4983;42.112;24.738;2023-11-21T05:54:32;59.63;;;15.23;;
9888;SDS011;4983;42.112;24.738;2023-11-21T05:56:59;27.77;;;12.57;;
9888;SDS011;4983;42.112;24.738;2023-11-21T05:59:26;27.73;;;12.43;;
9888;SDS011;4983;42.112;24.738;2023-11-21T06:01:53;21.53;;;11.17;;
9888;SDS011;4983;42.112;24.738;2023-11-21T06:04:21;40.03;;;15.27;;
9888;SDS011;4983;42.112;24.738;2023-11-21T06:06:50;19.50;;;12.00;;
9888;SDS011;4983;42.112;24.738;2023-11-21T06:09:19;28.13;;;12.53;;
9888;SDS011;4983;42.112;24.738;2023-11-21T06:11:47;52.60;;;13.60;;
9888;SDS011;4983;42.112;24.738;2023-11-21T06:14:13;34.50;;;13.33;;
9888;SDS011;4983;42.112;24.738;2023-11-21T06:16:43;45.57;;;12.97;;
9888;SDS011;4983;42.112;24.738;2023-11-21T06:19:10;62.27;;;15.37;;
9888;SDS011;4983;42.112;24.738;2023-11-21T06:21:38;44.90;;;13.57;;
9888;SDS011;4983;42.112;24.738;2023-11-21T06:24:05;38.27;;;11.67;;
9888;SDS011;4983;42.112;24.738;2023-11-21T06:26:34;38.70;;;12.03;;
9888;SDS011;4983;42.112;24.738;2023-11-21T06:29:01;29.03;;;11.43;;
9888;SDS011;4983;42.112;24.738;2023-11-21T06:31:29;27.23;;;10.83;;
9888;SDS011;4983;42.112;24.738;2023-11-21T06:33:58;28.17;;;11.33;;
9888;SDS011;4983;42.112;24.738;2023-11-21T06:36:25;24.13;;;13.27;;
9888;SDS011;4983;42.112;24.738;2023-11-21T06:38:52;22.13;;;12.67;;
9888;SDS011;4983;42.112;24.738;2023-11-21T06:41:20;20.53;;;10.73;;
9888;SDS011;4983;42.112;24.738;2023-11-21T06:43:49;21.50;;;9.20;;
9888;SDS011;4983;42.112;24.738;2023-11-21T06:46:16;15.80;;;8.47;;
9888;SDS011;4983;42.112;24.738;2023-11-21T06:48:45;14.97;;;8.23;;
9888;SDS011;4983;42.112;24.738;2023-11-21T06:51:11;19.27;;;8.47;;
9888;SDS011;4983;42.112;24.738;2023-11-21T06:53:39;20.43;;;8.57;;
9888;SDS011;4983;42.112;24.738;2023-11-21T06:56:14;22.77;;;9.50;;
9888;SDS011;4983;42.112;24.738;2023-11-21T06:58:42;26.23;;;9.50;;
9888;SDS011;4983;42.112;24.738;2023-11-21T07:01:12;60.47;;;13.67;;
9888;SDS011;4983;42.112;24.738;2023-11-21T07:03:40;44.87;;;11.63;;
9888;SDS011;4983;42.112;24.738;2023-11-21T07:06:08;20.03;;;9.90;;
9888;SDS011;4983;42.112;24.738;2023-11-21T07:08:35;18.13;;;9.73;;
9888;SDS011;4983;42.112;24.738;2023-11-21T07:11:03;27.70;;;9.83;;
9888;SDS011;4983;42.112;24.738;2023-11-21T07:13:31;19.60;;;9.77;;
9888;SDS011;4983;42.112;24.738;2023-11-21T07:15:59;19.03;;;9.30;;
9888;SDS011;4983;42.112;24.738;2023-11-21T07:18:28;25.13;;;9.80;;
9888;SDS011;4983;42.112;24.738;2023-11-21T07:20:55;24.10;;;10.37;;
9888;SDS011;4983;42.112;24.738;2023-11-21T07:23:22;34.33;;;12.27;;
9888;SDS011;4983;42.112;24.738;2023-11-21T07:25:49;20.27;;;10.70;;
9888;SDS011;4983;42.112;24.738;2023-11-21T07:28:15;32.13;;;11.77;;
9888;SDS011;4983;42.112;24.738;2023-11-21T07:30:42;24.60;;;12.83;;
9888;SDS011;4983;42.112;24.738;2023-11-21T07:33:09;20.47;;;10.40;;
9888;SDS011;4983;42.112;24.738;2023-11-21T07:35:38;14.00;;;9.57;;
9888;SDS011;4983;42.112;24.738;2023-11-21T07:38:05;15.73;;;9.40;;
9888;SDS011;4983;42.112;24.738;2023-11-21T07:40:32;20.33;;;9.30;;
9888;SDS011;4983;42.112;24.738;2023-11-21T07:42:59;15.83;;;9.30;;
9888;SDS011;4983;42.112;24.738;2023-11-21T07:45:26;16.17;;;9.47;;
9888;SDS011;4983;42.112;24.738;2023-11-21T07:47:54;14.70;;;9.73;;
9888;SDS011;4983;42.112;24.738;2023-11-21T07:50:22;15.83;;;10.27;;
9888;SDS011;4983;42.112;24.738;2023-11-21T07:52:52;29.77;;;10.80;;
9888;SDS011;4983;42.112;24.738;2023-11-21T07:55:19;38.40;;;13.20;;
9888;SDS011;4983;42.112;24.738;2023-11-21T07:57:46;41.07;;;13.10;;
9888;SDS011;4983;42.112;24.738;2023-11-21T08:00:13;17.67;;;9.37;;
9888;SDS011;4983;42.112;24.738;2023-11-21T08:02:41;13.13;;;9.10;;
9888;SDS011;4983;42.112;24.738;2023-11-21T08:05:12;26.53;;;10.30;;
9888;SDS011;4983;42.112;24.738;2023-11-21T08:07:40;13.03;;;9.07;;
9888;SDS011;4983;42.112;24.738;2023-11-21T08:10:09;15.83;;;8.73;;
9888;SDS011;4983;42.112;24.738;2023-11-21T08:12:37;24.93;;;9.20;;
9888;SDS011;4983;42.112;24.738;2023-11-21T08:15:05;11.70;;;8.07;;
9888;SDS011;4983;42.112;24.738;2023-11-21T08:17:34;24.17;;;8.33;;
9888;SDS011;4983;42.112;24.738;2023-11-21T08:20:01;11.17;;;7.20;;
9888;SDS011;4983;42.112;24.738;2023-11-21T08:22:29;12.37;;;6.63;;
9888;SDS011;4983;42.112;24.738;2023-11-21T08:24:56;14.90;;;6.33;;
9888;SDS011;4983;42.112;24.738;2023-11-21T08:27:25;21.20;;;7.77;;
9888;SDS011;4983;42.112;24.738;2023-11-21T08:29:52;11.73;;;5.57;;
9888;SDS011;4983;42.112;24.738;2023-11-21T08:32:20;10.33;;;6.07;;
9888;SDS011;4983;42.112;24.738;2023-11-21T08:34:47;8.83;;;5.97;;
9888;SDS011;4983;42.112;24.738;2023-11-21T08:37:16;10.40;;;5.63;;
9888;SDS011;4983;42.112;24.738;2023-11-21T08:39:43;8.97;;;5.97;;
9888;SDS011;4983;42.112;24.738;2023-11-21T08:42:10;12.27;;;5.97;;
9888;SDS011;4983;42.112;24.738;2023-11-21T08:44:38;7.23;;;4.60;;
9888;SDS011;4983;42.112;24.738;2023-11-21T08:47:05;6.30;;;4.70;;
9888;SDS011;4983;42.112;24.738;2023-11-21T08:49:32;7.00;;;4.70;;
9888;SDS011;4983;42.112;24.738;2023-11-21T08:51:59;15.57;;;5.73;;
9888;SDS011;4983;42.112;24.738;2023-11-21T08:54:26;14.70;;;5.00;;
9888;SDS011;4983;42.112;24.738;2023-11-21T08:56:53;12.63;;;4.90;;
9888;SDS011;4983;42.112;24.738;2023-11-21T08:59:20;8.37;;;4.40;;
9888;SDS011;4983;42.112;24.738;2023-11-21T09:01:48;35.90;;;6.43;;
9888;SDS011;4983;42.112;24.738;2023-11-21T09:04:16;8.50;;;4.97;;
9888;SDS011;4983;42.112;24.738;2023-11-21T09:06:43;5.77;;;3.70;;
9888;SDS011;4983;42.112;24.738;2023-11-21T09:09:10;4.67;;;4.00;;
9888;SDS011;4983;42.112;24.738;2023-11-21T09:11:38;7.07;;;3.97;;
9888;SDS011;4983;42.112;24.738;2023-11-21T09:14:05;4.53;;;4.10;;
9888;SDS011;4983;42.112;24.738;2023-11-21T09:16:32;7.90;;;4.70;;
9888;SDS011;4983;42.112;24.738;2023-11-21T09:19:00;7.97;;;3.90;;
9888;SDS011;4983;42.112;24.738;2023-11-21T09:21:30;8.53;;;4.00;;
9888;SDS011;4983;42.112;24.738;2023-11-21T09:23:58;8.43;;;4.73;;
9888;SDS011;4983;42.112;24.738;2023-11-21T09:26:25;7.67;;;4.50;;
9888;SDS011;4983;42.112;24.738;2023-11-21T09:28:52;6.10;;;4.30;;
9888;SDS011;4983;42.112;24.738;2023-11-21T09:31:22;7.37;;;4.40;;
9888;SDS011;4983;42.112;24.738;2023-11-21T09:33:49;8.03;;;4.17;;
9888;SDS011;4983;42.112;24.738;2023-11-21T09:36:17;13.63;;;5.30;;
9888;SDS011;4983;42.112;24.738;2023-11-21T09:38:46;9.50;;;4.60;;
9888;SDS011;4983;42.112;24.738;2023-11-21T09:41:17;15.67;;;5.27;;
9888;SDS011;4983;42.112;24.738;2023-11-21T09:43:49;25.20;;;6.70;;
9888;SDS011;4983;42.112;24.738;2023-11-21T09:46:24;30.80;;;6.60;;
9888;SDS011;4983;42.112;24.738;2023-11-21T09:48:55;10.60;;;5.03;;
9888;SDS011;4983;42.112;24.738;2023-11-21T09:51:28;10.60;;;5.00;;
9888;SDS011;4983;42.112;24.738;2023-11-21T09:53:58;7.77;;;4.73;;
9888;SDS011;4983;42.112;24.738;2023-11-21T09:56:32;7.67;;;5.10;;
9888;SDS011;4983;42.112;24.738;2023-11-21T09:58:59;14.50;;;5.63;;
9888;SDS011;4983;42.112;24.738;2023-11-21T10:01:30;18.93;;;5.90;;
9888;SDS011;4983;42.112;24.738;2023-11-21T10:03:58;10.50;;;5.47;;
9888;SDS011;4983;42.112;24.738;2023-11-21T10:06:28;12.43;;;6.13;;
9888;SDS011;4983;42.112;24.738;2023-11-21T10:08:56;29.20;;;6.87;;
9888;SDS011;4983;42.112;24.738;2023-11-21T10:11:25;9.87;;;5.67;;
9888;SDS011;4983;42.112;24.738;2023-11-21T10:13:55;15.63;;;6.20;;
9888;SDS011;4983;42.112;24.738;2023-11-21T10:16:25;26.30;;;7.87;;
9888;SDS011;4983;42.112;24.738;2023-11-21T10:18:53;17.77;;;6.90;;
9888;SDS011;4983;42.112;24.738;2023-11-21T10:21:21;20.13;;;7.60;;
9888;SDS011;4983;42.112;24.738;2023-11-21T10:23:50;13.80;;;7.30;;
9888;SDS011;4983;42.112;24.738;2023-11-21T10:26:19;12.70;;;6.43;;
9888;SDS011;4983;42.112;24.738;2023-11-21T10:28:55;13.40;;;6.80;;
9888;SDS011;4983;42.112;24.738;2023-11-21T10:31:23;43.83;;;8.67;;
9888;SDS011;4983;42.112;24.738;2023-11-21T10:33:50;10.47;;;6.40;;
9888;SDS011;4983;42.112;24.738;2023-11-21T10:36:25;10.50;;;6.57;;
9888;SDS011;4983;42.112;24.738;2023-11-21T10:38:55;9.83;;;6.57;;
9888;SDS011;4983;42.112;24.738;2023-11-21T10:41:22;14.13;;;7.33;;
9888;SDS011;4983;42.112;24.738;2023-11-21T10:43:52;12.80;;;6.60;;
9888;SDS011;4983;42.112;24.738;2023-11-21T10:46:22;29.60;;;8.73;;
9888;SDS011;4983;42.112;24.738;2023-11-21T10:48:54;22.37;;;8.03;;
9888;SDS011;4983;42.112;24.738;2023-11-21T10:51:22;17.13;;;6.93;;
9888;SDS011;4983;42.112;24.738;2023-11-21T10:53:51;34.87;;;9.47;;
9888;SDS011;4983;42.112;24.738;2023-11-21T10:56:20;16.13;;;7.23;;
9888;SDS011;4983;42.112;24.738;2023-11-21T10:58:50;21.70;;;6.93;;
9888;SDS011;4983;42.112;24.738;2023-11-21T11:01:18;15.07;;;6.40;;
9888;SDS011;4983;42.112;24.738;2023-11-21T11:03:47;14.20;;;5.33;;
9888;SDS011;4983;42.112;24.738;2023-11-21T11:06:15;10.37;;;5.67;;
9888;SDS011;4983;42.112;24.738;2023-11-21T11:08:44;13.70;;;5.73;;
9888;SDS011;4983;42.112;24.738;2023-11-21T11:11:12;21.90;;;7.27;;
9888;SDS011;4983;42.112;24.738;2023-11-21T11:13:44;50.37;;;7.00;;
9888;SDS011;4983;42.112;24.738;2023-11-21T11:16:12;43.87;;;7.10;;
9888;SDS011;4983;42.112;24.738;2023-11-21T11:18:43;81.60;;;11.57;;
9888;SDS011;4983;42.112;24.738;2023-11-21T11:21:15;76.70;;;10.53;;
9888;SDS011;4983;42.112;24.738;2023-11-21T11:23:56;10.43;;;5.93;;
9888;SDS011;4983;42.112;24.738;2023-11-21T11:26:36;29.13;;;6.10;;
9888;SDS011;4983;42.112;24.738;2023-11-21T11:29:17;11.60;;;6.17;;
9888;SDS011;4983;42.112;24.738;2023-11-21T11:31:52;14.67;;;6.00;;
9888;SDS011;4983;42.112;24.738;2023-11-21T11:34:28;9.20;;;5.97;;
9888;SDS011;4983;42.112;24.738;2023-11-21T11:37:00;19.83;;;7.90;;
9888;SDS011;4983;42.112;24.738;2023-11-21T11:39:30;11.90;;;6.80;;
9888;SDS011;4983;42.112;24.738;2023-11-21T11:42:01;333.13;;;31.13;;
9888;SDS011;4983;42.112;24.738;2023-11-21T11:44:48;66.43;;;11.53;;
9888;SDS011;4983;42.112;24.738;2023-11-21T11:47:20;18.03;;;8.10;;
9888;SDS011;4983;42.112;24.738;2023-11-21T11:49:57;30.47;;;17.57;;
9888;SDS011;4983;42.112;24.738;2023-11-21T11:52:33;23.00;;;11.83;;
9888;SDS011;4983;42.112;24.738;2023-11-21T11:55:01;48.50;;;12.52;;
9888;SDS011;4983;42.112;24.738;2023-11-21T11:57:30;25.27;;;9.73;;
9888;SDS011;4983;42.112;24.738;2023-11-21T12:00:11;32.07;;;13.97;;
9888;SDS011;4983;42.112;24.738;2023-11-21T12:02:47;27.40;;;11.77;;
9888;SDS011;4983;42.112;24.738;2023-11-21T12:05:16;16.90;;;7.97;;
9888;SDS011;4983;42.112;24.738;2023-11-21T12:07:47;16.37;;;8.70;;
9888;SDS011;4983;42.112;24.738;2023-11-21T12:10:19;25.13;;;8.80;;
9888;SDS011;4983;42.112;24.738;2023-11-21T12:12:48;23.97;;;9.17;;
9888;SDS011;4983;42.112;24.738;2023-11-21T12:15:19;22.43;;;10.20;;
9888;SDS011;4983;42.112;24.738;2023-11-21T12:17:47;62.60;;;12.43;;
9888;SDS011;4983;42.112;24.738;2023-11-21T12:20:16;21.17;;;9.03;;
9888;SDS011;4983;42.112;24.738;2023-11-21T12:22:45;17.87;;;8.33;;
9888;SDS011;4983;42.112;24.738;2023-11-21T12:25:16;17.97;;;8.30;;
9888;SDS011;4983;42.112;24.738;2023-11-21T12:27:45;21.97;;;8.00;;
9888;SDS011;4983;42.112;24.738;2023-11-21T12:30:15;13.57;;;8.23;;
9888;SDS011;4983;42.112;24.738;2023-11-21T12:32:44;12.50;;;8.10;;
9888;SDS011;4983;42.112;24.738;2023-11-21T12:35:14;45.97;;;13.97;;
9888;SDS011;4983;42.112;24.738;2023-11-21T12:37:43;27.50;;;9.73;;
9888;SDS011;4983;42.112;24.738;2023-11-21T12:40:10;15.40;;;8.60;;
9888;SDS011;4983;42.112;24.738;2023-11-21T12:42:41;32.00;;;11.10;;
9888;SDS011;4983;42.112;24.738;2023-11-21T12:45:09;32.23;;;10.27;;
9888;SDS011;4983;42.112;24.738;2023-11-21T12:47:47;22.70;;;7.87;;
9888;SDS011;4983;42.112;24.738;2023-11-21T12:50:15;14.57;;;6.53;;
9888;SDS011;4983;42.112;24.738;2023-11-21T12:52:49;131.07;;;15.23;;
9888;SDS011;4983;42.112;24.738;2023-11-21T12:55:19;31.13;;;7.40;;
9888;SDS011;4983;42.112;24.738;2023-11-21T12:57:48;10.83;;;6.93;;
9888;SDS011;4983;42.112;24.738;2023-11-21T13:00:17;61.00;;;12.03;;
9888;SDS011;4983;42.112;24.738;2023-11-21T13:02:54;31.30;;;7.53;;
9888;SDS011;4983;42.112;24.738;2023-11-21T13:05:26;16.27;;;7.90;;
9888;SDS011;4983;42.112;24.738;2023-11-21T13:07:54;9.23;;;5.83;;
9888;SDS011;4983;42.112;24.738;2023-11-21T13:10:23;13.83;;;6.13;;
9888;SDS011;4983;42.112;24.738;2023-11-21T13:12:55;7.20;;;5.43;;
9888;SDS011;4983;42.112;24.738;2023-11-21T13:15:23;9.90;;;5.97;;
9888;SDS011;4983;42.112;24.738;2023-11-21T13:17:50;24.33;;;7.43;;
9888;SDS011;4983;42.112;24.738;2023-11-21T13:20:20;16.20;;;6.13;;
9888;SDS011;4983;42.112;24.738;2023-11-21T13:22:48;15.57;;;5.47;;
9888;SDS011;4983;42.112;24.738;2023-11-21T13:25:16;21.20;;;6.93;;
9888;SDS011;4983;42.112;24.738;2023-11-21T13:27:45;11.67;;;6.00;;
9888;SDS011;4983;42.112;24.738;2023-11-21T13:30:12;9.70;;;5.37;;
9888;SDS011;4983;42.112;24.738;2023-11-21T13:32:42;7.63;;;5.60;;
9888;SDS011;4983;42.112;24.738;2023-11-21T13:35:11;12.93;;;5.87;;
9888;SDS011;4983;42.112;24.738;2023-11-21T13:37:50;13.83;;;6.00;;
9888;SDS011;4983;42.112;24.738;2023-11-21T13:40:21;15.27;;;5.70;;
9888;SDS011;4983;42.112;24.738;2023-11-21T13:42:51;56.50;;;21.80;;
9888;SDS011;4983;42.112;24.738;2023-11-21T13:45:20;9.70;;;5.13;;
9888;SDS011;4983;42.112;24.738;2023-11-21T13:47:49;7.50;;;4.40;;
9888;SDS011;4983;42.112;24.738;2023-11-21T13:50:23;11.13;;;4.47;;
9888;SDS011;4983;42.112;24.738;2023-11-21T13:52:57;7.23;;;4.83;;
9888;SDS011;4983;42.112;24.738;2023-11-21T13:55:28;13.77;;;5.33;;
9888;SDS011;4983;42.112;24.738;2023-11-21T13:57:55;22.40;;;6.37;;
9888;SDS011;4983;42.112;24.738;2023-11-21T14:00:22;17.53;;;6.60;;
9888;SDS011;4983;42.112;24.738;2023-11-21T14:03:10;35.73;;;7.67;;
9888;SDS011;4983;42.112;24.738;2023-11-21T14:05:44;28.57;;;7.30;;
9888;SDS011;4983;42.112;24.738;2023-11-21T14:08:14;33.80;;;7.73;;
9888;SDS011;4983;42.112;24.738;2023-11-21T14:10:45;26.97;;;6.73;;
9888;SDS011;4983;42.112;24.738;2023-11-21T14:13:16;27.83;;;6.73;;
9888;SDS011;4983;42.112;24.738;2023-11-21T14:15:43;40.57;;;7.83;;
9888;SDS011;4983;42.112;24.738;2023-11-21T14:18:12;58.97;;;12.50;;
9888;SDS011;4983;42.112;24.738;2023-11-21T14:20:43;71.20;;;11.77;;
9888;SDS011;4983;42.112;24.738;2023-11-21T14:23:10;38.67;;;9.03;;
9888;SDS011;4983;42.112;24.738;2023-11-21T14:25:39;40.57;;;8.77;;
9888;SDS011;4983;42.112;24.738;2023-11-21T14:28:08;59.63;;;11.47;;
9888;SDS011;4983;42.112;24.738;2023-11-21T14:30:37;62.20;;;11.57;;
9888;SDS011;4983;42.112;24.738;2023-11-21T14:33:05;64.10;;;12.80;;
9888;SDS011;4983;42.112;24.738;2023-11-21T14:35:33;44.33;;;11.20;;
9888;SDS011;4983;42.112;24.738;2023-11-21T14:38:00;50.43;;;12.27;;
9888;SDS011;4983;42.112;24.738;2023-11-21T14:40:29;77.07;;;12.40;;
9888;SDS011;4983;42.112;24.738;2023-11-21T14:43:00;52.90;;;11.43;;
9888;SDS011;4983;42.112;24.738;2023-11-21T14:45:30;83.03;;;16.00;;
9888;SDS011;4983;42.112;24.738;2023-11-21T14:47:58;110.00;;;19.53;;
9888;SDS011;4983;42.112;24.738;2023-11-21T14:50:32;138.60;;;21.83;;
9888;SDS011;4983;42.112;24.738;2023-11-21T14:53:38;134.13;;;20.60;;
9888;SDS011;4983;42.112;24.738;2023-11-21T14:56:09;129.07;;;22.03;;